sensor_id;sensor_type;location;lat;lon;timestamp;P1;durP1;ratioP1;P2;durP2;ratioP2
37309;SDS011;23195;47.744;7.358;2023-02-28T00:00:35;7.13;;;3.47;;
37309;SDS011;23195;47.744;7.358;2023-02-28T00:03:05;4.47;;;3.47;;
37309;SDS011;23195;47.744;7.358;2023-02-28T00:05:31;6.10;;;3.63;;
37309;SDS011;23195;47.744;7.358;2023-02-28T00:07:57;5.47;;;3.57;;
37309;SDS011;23195;47.744;7.358;2023-02-28T00:10:24;8.43;;;3.90;;
37309;SDS011;23195;47.744;7.358;2023-02-28T00:12:54;5.67;;;3.57;;
37309;SDS011;23195;47.744;7.358;2023-02-28T00:15:22;5.80;;;4.10;;
37309;SDS011;23195;47.744;7.358;2023-02-28T00:17:49;6.43;;;3.70;;
37309;SDS011;23195;47.744;7.358;2023-02-28T00:20:15;7.30;;;3.90;;
37309;SDS011;23195;47.744;7.358;2023-02-28T00:22:42;6.90;;;4.10;;
37309;SDS011;23195;47.744;7.358;2023-02-28T00:25:10;8.00;;;3.80;;
37309;SDS011;23195;47.744;7.358;2023-02-28T00:27:38;7.03;;;4.10;;
37309;SDS011;23195;47.744;7.358;2023-02-28T00:30:06;7.03;;;3.97;;
37309;SDS011;23195;47.744;7.358;2023-02-28T00:32:36;9.03;;;3.90;;
37309;SDS011;23195;47.744;7.358;2023-02-28T00:35:05;7.60;;;4.07;;
37309;SDS011;23195;47.744;7.358;2023-02-28T00:37:31;6.57;;;4.10;;
37309;SDS011;23195;47.744;7.358;2023-02-28T00:39:57;8.47;;;4.00;;
37309;SDS011;23195;47.744;7.358;2023-02-28T00:42:23;5.50;;;4.10;;
37309;SDS011;23195;47.744;7.358;2023-02-28T00:44:49;6.90;;;3.87;;
37309;SDS011;23195;47.744;7.358;2023-02-28T00:47:19;7.83;;;4.37;;
37309;SDS011;23195;47.744;7.358;2023-02-28T00:49:44;6.07;;;4.30;;
37309;SDS011;23195;47.744;7.358;2023-02-28T00:52:13;5.70;;;4.20;;
37309;SDS011;23195;47.744;7.358;2023-02-28T00:54:39;9.50;;;3.73;;
37309;SDS011;23195;47.744;7.358;2023-02-28T00:57:05;5.67;;;3.90;;
37309;SDS011;23195;47.744;7.358;2023-02-28T00:59:34;5.40;;;4.03;;
37309;SDS011;23195;47.744;7.358;2023-02-28T01:02:03;5.13;;;3.80;;
37309;SDS011;23195;47.744;7.358;2023-02-28T01:04:28;8.67;;;4.30;;
37309;SDS011;23195;47.744;7.358;2023-02-28T01:06:54;6.47;;;4.00;;
37309;SDS011;23195;47.744;7.358;2023-02-28T01:09:20;6.30;;;3.70;;
37309;SDS011;23195;47.744;7.358;2023-02-28T01:11:46;6.23;;;4.10;;
37309;SDS011;23195;47.744;7.358;2023-02-28T01:14:12;8.20;;;3.97;;
37309;SDS011;23195;47.744;7.358;2023-02-28T01:16:39;5.17;;;3.50;;
37309;SDS011;23195;47.744;7.358;2023-02-28T01:19:05;5.27;;;4.10;;
37309;SDS011;23195;47.744;7.358;2023-02-28T01:21:31;6.40;;;3.97;;
37309;SDS011;23195;47.744;7.358;2023-02-28T01:23:57;6.87;;;4.30;;
37309;SDS011;23195;47.744;7.358;2023-02-28T01:26:23;8.10;;;4.10;;
37309;SDS011;23195;47.744;7.358;2023-02-28T01:28:50;7.70;;;4.30;;
37309;SDS011;23195;47.744;7.358;2023-02-28T01:31:16;8.50;;;4.30;;
37309;SDS011;23195;47.744;7.358;2023-02-28T01:33:43;7.60;;;4.23;;
37309;SDS011;23195;47.744;7.358;2023-02-28T01:36:15;7.83;;;4.17;;
37309;SDS011;23195;47.744;7.358;2023-02-28T01:38:43;6.10;;;4.20;;
37309;SDS011;23195;47.744;7.358;2023-02-28T01:41:10;5.73;;;4.20;;
37309;SDS011;23195;47.744;7.358;2023-02-28T01:46:12;7.33;;;4.40;;
37309;SDS011;23195;47.744;7.358;2023-02-28T01:49:02;6.83;;;4.50;;
37309;SDS011;23195;47.744;7.358;2023-02-28T01:54:18;7.27;;;4.60;;
37309;SDS011;23195;47.744;7.358;2023-02-28T01:56:49;6.07;;;4.40;;
37309;SDS011;23195;47.744;7.358;2023-02-28T01:59:41;7.20;;;4.30;;
37309;SDS011;23195;47.744;7.358;2023-02-28T02:02:12;8.80;;;4.20;;
37309;SDS011;23195;47.744;7.358;2023-02-28T02:04:40;8.17;;;4.27;;
37309;SDS011;23195;47.744;7.358;2023-02-28T02:07:11;8.13;;;5.03;;
37309;SDS011;23195;47.744;7.358;2023-02-28T02:09:38;7.63;;;4.73;;
37309;SDS011;23195;47.744;7.358;2023-02-28T02:12:07;6.83;;;4.67;;
37309;SDS011;23195;47.744;7.358;2023-02-28T02:15:08;8.43;;;4.90;;
37309;SDS011;23195;47.744;7.358;2023-02-28T02:17:45;4.90;;;4.13;;
37309;SDS011;23195;47.744;7.358;2023-02-28T02:29:06;6.07;;;4.10;;
37309;SDS011;23195;47.744;7.358;2023-02-28T02:37:24;6.57;;;4.50;;
37309;SDS011;23195;47.744;7.358;2023-02-28T02:39:59;6.43;;;4.33;;
37309;SDS011;23195;47.744;7.358;2023-02-28T02:45:27;7.00;;;4.43;;
37309;SDS011;23195;47.744;7.358;2023-02-28T02:48:03;5.83;;;4.17;;
37309;SDS011;23195;47.744;7.358;2023-02-28T02:50:35;6.90;;;4.10;;
37309;SDS011;23195;47.744;7.358;2023-02-28T02:53:04;7.33;;;4.60;;
37309;SDS011;23195;47.744;7.358;2023-02-28T02:55:33;6.73;;;4.27;;
37309;SDS011;23195;47.744;7.358;2023-02-28T02:58:02;8.50;;;4.70;;
37309;SDS011;23195;47.744;7.358;2023-02-28T03:00:34;5.73;;;4.27;;
37309;SDS011;23195;47.744;7.358;2023-02-28T03:03:05;5.80;;;4.27;;
37309;SDS011;23195;47.744;7.358;2023-02-28T03:05:39;6.73;;;4.53;;
37309;SDS011;23195;47.744;7.358;2023-02-28T03:08:10;6.77;;;4.40;;
37309;SDS011;23195;47.744;7.358;2023-02-28T03:10:40;6.50;;;4.23;;
37309;SDS011;23195;47.744;7.358;2023-02-28T03:13:23;5.30;;;4.13;;
37309;SDS011;23195;47.744;7.358;2023-02-28T03:16:15;7.33;;;3.97;;
37309;SDS011;23195;47.744;7.358;2023-02-28T03:24:14;6.63;;;4.47;;
37309;SDS011;23195;47.744;7.358;2023-02-28T03:27:04;6.43;;;4.00;;
37309;SDS011;23195;47.744;7.358;2023-02-28T03:35:20;6.17;;;4.17;;
37309;SDS011;23195;47.744;7.358;2023-02-28T03:37:58;5.90;;;4.30;;
37309;SDS011;23195;47.744;7.358;2023-02-28T03:40:34;7.73;;;4.33;;
37309;SDS011;23195;47.744;7.358;2023-02-28T03:43:09;6.90;;;4.10;;
37309;SDS011;23195;47.744;7.358;2023-02-28T03:45:38;7.33;;;4.80;;
37309;SDS011;23195;47.744;7.358;2023-02-28T03:51:17;7.93;;;4.90;;
37309;SDS011;23195;47.744;7.358;2023-02-28T03:53:49;6.03;;;4.40;;
37309;SDS011;23195;47.744;7.358;2023-02-28T03:56:39;6.50;;;4.23;;
37309;SDS011;23195;47.744;7.358;2023-02-28T03:59:14;5.17;;;4.23;;
37309;SDS011;23195;47.744;7.358;2023-02-28T04:01:49;6.17;;;4.33;;
37309;SDS011;23195;47.744;7.358;2023-02-28T04:04:16;6.73;;;4.40;;
37309;SDS011;23195;47.744;7.358;2023-02-28T04:06:43;6.73;;;4.40;;
37309;SDS011;23195;47.744;7.358;2023-02-28T04:09:10;6.43;;;4.30;;
37309;SDS011;23195;47.744;7.358;2023-02-28T04:11:42;8.17;;;4.77;;
37309;SDS011;23195;47.744;7.358;2023-02-28T04:14:16;6.13;;;4.40;;
37309;SDS011;23195;47.744;7.358;2023-02-28T04:16:42;6.73;;;4.47;;
37309;SDS011;23195;47.744;7.358;2023-02-28T04:19:09;7.93;;;5.00;;
37309;SDS011;23195;47.744;7.358;2023-02-28T04:21:39;7.23;;;4.37;;
37309;SDS011;23195;47.744;7.358;2023-02-28T04:24:08;9.73;;;4.60;;
37309;SDS011;23195;47.744;7.358;2023-02-28T04:26:39;7.30;;;4.60;;
37309;SDS011;23195;47.744;7.358;2023-02-28T04:29:08;6.57;;;4.40;;
37309;SDS011;23195;47.744;7.358;2023-02-28T04:31:35;6.80;;;4.50;;
37309;SDS011;23195;47.744;7.358;2023-02-28T04:34:01;5.60;;;4.30;;
37309;SDS011;23195;47.744;7.358;2023-02-28T04:36:27;7.33;;;4.70;;
37309;SDS011;23195;47.744;7.358;2023-02-28T04:38:53;7.43;;;4.57;;
37309;SDS011;23195;47.744;7.358;2023-02-28T04:41:20;6.63;;;4.43;;
37309;SDS011;23195;47.744;7.358;2023-02-28T04:43:47;6.63;;;4.43;;
37309;SDS011;23195;47.744;7.358;2023-02-28T04:46:13;5.87;;;4.10;;
37309;SDS011;23195;47.744;7.358;2023-02-28T04:48:39;6.33;;;4.10;;
37309;SDS011;23195;47.744;7.358;2023-02-28T04:51:07;6.40;;;4.30;;
37309;SDS011;23195;47.744;7.358;2023-02-28T04:53:35;8.30;;;4.43;;
37309;SDS011;23195;47.744;7.358;2023-02-28T04:56:02;6.33;;;4.10;;
37309;SDS011;23195;47.744;7.358;2023-02-28T04:58:29;8.33;;;4.40;;
37309;SDS011;23195;47.744;7.358;2023-02-28T05:01:01;10.13;;;4.60;;
37309;SDS011;23195;47.744;7.358;2023-02-28T05:03:40;7.27;;;4.27;;
37309;SDS011;23195;47.744;7.358;2023-02-28T05:06:07;7.53;;;5.03;;
37309;SDS011;23195;47.744;7.358;2023-02-28T05:08:36;7.33;;;5.40;;
37309;SDS011;23195;47.744;7.358;2023-02-28T05:11:02;6.63;;;4.70;;
37309;SDS011;23195;47.744;7.358;2023-02-28T05:13:29;6.30;;;4.47;;
37309;SDS011;23195;47.744;7.358;2023-02-28T05:15:58;7.07;;;4.67;;
37309;SDS011;23195;47.744;7.358;2023-02-28T05:18:23;7.97;;;4.63;;
37309;SDS011;23195;47.744;7.358;2023-02-28T05:20:49;7.23;;;4.53;;
37309;SDS011;23195;47.744;7.358;2023-02-28T05:23:15;8.23;;;4.90;;
37309;SDS011;23195;47.744;7.358;2023-02-28T05:25:42;9.67;;;4.90;;
37309;SDS011;23195;47.744;7.358;2023-02-28T05:28:08;8.30;;;5.37;;
37309;SDS011;23195;47.744;7.358;2023-02-28T05:30:34;9.37;;;4.53;;
37309;SDS011;23195;47.744;7.358;2023-02-28T05:33:00;7.60;;;4.83;;
37309;SDS011;23195;47.744;7.358;2023-02-28T05:35:25;9.87;;;5.23;;
37309;SDS011;23195;47.744;7.358;2023-02-28T05:37:51;9.17;;;5.20;;
37309;SDS011;23195;47.744;7.358;2023-02-28T05:40:18;9.20;;;4.90;;
37309;SDS011;23195;47.744;7.358;2023-02-28T05:42:45;8.00;;;5.50;;
37309;SDS011;23195;47.744;7.358;2023-02-28T05:45:11;10.00;;;5.00;;
37309;SDS011;23195;47.744;7.358;2023-02-28T05:47:37;12.20;;;5.40;;
37309;SDS011;23195;47.744;7.358;2023-02-28T05:50:04;8.13;;;4.93;;
37309;SDS011;23195;47.744;7.358;2023-02-28T05:52:30;8.17;;;5.07;;
37309;SDS011;23195;47.744;7.358;2023-02-28T05:54:56;9.70;;;5.50;;
37309;SDS011;23195;47.744;7.358;2023-02-28T05:57:22;9.90;;;5.10;;
37309;SDS011;23195;47.744;7.358;2023-02-28T05:59:48;11.47;;;6.03;;
37309;SDS011;23195;47.744;7.358;2023-02-28T06:02:15;10.07;;;5.90;;
37309;SDS011;23195;47.744;7.358;2023-02-28T06:04:42;8.83;;;5.97;;
37309;SDS011;23195;47.744;7.358;2023-02-28T06:07:09;13.60;;;6.20;;
37309;SDS011;23195;47.744;7.358;2023-02-28T06:09:35;12.00;;;6.60;;
37309;SDS011;23195;47.744;7.358;2023-02-28T06:12:03;10.43;;;6.03;;
37309;SDS011;23195;47.744;7.358;2023-02-28T06:14:31;10.80;;;6.60;;
37309;SDS011;23195;47.744;7.358;2023-02-28T06:16:58;12.10;;;7.07;;
37309;SDS011;23195;47.744;7.358;2023-02-28T06:19:27;11.20;;;6.83;;
37309;SDS011;23195;47.744;7.358;2023-02-28T06:21:55;10.70;;;6.17;;
37309;SDS011;23195;47.744;7.358;2023-02-28T06:24:23;11.67;;;6.43;;
37309;SDS011;23195;47.744;7.358;2023-02-28T06:26:50;12.63;;;6.40;;
37309;SDS011;23195;47.744;7.358;2023-02-28T06:29:16;10.07;;;6.77;;
37309;SDS011;23195;47.744;7.358;2023-02-28T06:31:52;12.50;;;7.47;;
37309;SDS011;23195;47.744;7.358;2023-02-28T06:34:18;12.13;;;7.17;;
37309;SDS011;23195;47.744;7.358;2023-02-28T06:36:43;12.10;;;6.80;;
37309;SDS011;23195;47.744;7.358;2023-02-28T06:39:09;13.30;;;7.70;;
37309;SDS011;23195;47.744;7.358;2023-02-28T06:41:38;19.30;;;10.40;;
37309;SDS011;23195;47.744;7.358;2023-02-28T06:44:05;21.37;;;10.77;;
37309;SDS011;23195;47.744;7.358;2023-02-28T06:46:41;16.03;;;8.83;;
37309;SDS011;23195;47.744;7.358;2023-02-28T06:49:08;15.03;;;8.57;;
37309;SDS011;23195;47.744;7.358;2023-02-28T06:51:36;12.07;;;7.63;;
37309;SDS011;23195;47.744;7.358;2023-02-28T06:54:09;13.13;;;7.57;;
37309;SDS011;23195;47.744;7.358;2023-02-28T06:56:35;13.00;;;7.87;;
37309;SDS011;23195;47.744;7.358;2023-02-28T06:59:00;14.00;;;8.40;;
37309;SDS011;23195;47.744;7.358;2023-02-28T07:01:27;15.40;;;8.73;;
37309;SDS011;23195;47.744;7.358;2023-02-28T07:03:58;14.83;;;8.43;;
37309;SDS011;23195;47.744;7.358;2023-02-28T07:06:25;14.93;;;8.87;;
37309;SDS011;23195;47.744;7.358;2023-02-28T07:08:51;15.53;;;8.67;;
37309;SDS011;23195;47.744;7.358;2023-02-28T07:11:18;14.40;;;7.57;;
37309;SDS011;23195;47.744;7.358;2023-02-28T07:13:49;15.83;;;9.43;;
37309;SDS011;23195;47.744;7.358;2023-02-28T07:16:15;15.00;;;8.70;;
37309;SDS011;23195;47.744;7.358;2023-02-28T07:18:41;15.47;;;8.50;;
37309;SDS011;23195;47.744;7.358;2023-02-28T07:21:08;14.37;;;7.63;;
37309;SDS011;23195;47.744;7.358;2023-02-28T07:23:35;13.77;;;8.33;;
37309;SDS011;23195;47.744;7.358;2023-02-28T07:26:03;16.60;;;9.13;;
37309;SDS011;23195;47.744;7.358;2023-02-28T07:28:30;18.90;;;9.33;;
37309;SDS011;23195;47.744;7.358;2023-02-28T07:30:55;15.10;;;8.17;;
37309;SDS011;23195;47.744;7.358;2023-02-28T07:33:43;12.87;;;8.10;;
37309;SDS011;23195;47.744;7.358;2023-02-28T07:36:15;15.80;;;8.53;;
37309;SDS011;23195;47.744;7.358;2023-02-28T07:38:47;14.00;;;8.87;;
37309;SDS011;23195;47.744;7.358;2023-02-28T07:41:19;17.27;;;9.10;;
37309;SDS011;23195;47.744;7.358;2023-02-28T07:43:46;14.03;;;8.07;;
37309;SDS011;23195;47.744;7.358;2023-02-28T07:46:16;14.93;;;8.50;;
37309;SDS011;23195;47.744;7.358;2023-02-28T07:48:42;15.27;;;9.57;;
37309;SDS011;23195;47.744;7.358;2023-02-28T07:51:09;14.60;;;8.30;;
37309;SDS011;23195;47.744;7.358;2023-02-28T07:53:35;15.10;;;8.73;;
37309;SDS011;23195;47.744;7.358;2023-02-28T07:56:01;12.60;;;7.97;;
37309;SDS011;23195;47.744;7.358;2023-02-28T07:58:30;16.77;;;8.87;;
37309;SDS011;23195;47.744;7.358;2023-02-28T08:00:56;15.43;;;9.03;;
37309;SDS011;23195;47.744;7.358;2023-02-28T08:03:32;11.27;;;7.70;;
37309;SDS011;23195;47.744;7.358;2023-02-28T08:05:58;14.57;;;8.90;;
37309;SDS011;23195;47.744;7.358;2023-02-28T08:08:24;16.33;;;9.20;;
37309;SDS011;23195;47.744;7.358;2023-02-28T08:10:54;13.63;;;8.43;;
37309;SDS011;23195;47.744;7.358;2023-02-28T08:13:21;14.50;;;8.50;;
37309;SDS011;23195;47.744;7.358;2023-02-28T08:15:47;16.00;;;8.43;;
37309;SDS011;23195;47.744;7.358;2023-02-28T08:18:12;13.23;;;8.20;;
37309;SDS011;23195;47.744;7.358;2023-02-28T08:20:38;13.87;;;8.50;;
37309;SDS011;23195;47.744;7.358;2023-02-28T08:23:07;18.53;;;9.43;;
37309;SDS011;23195;47.744;7.358;2023-02-28T08:25:32;16.27;;;10.57;;
37309;SDS011;23195;47.744;7.358;2023-02-28T08:27:59;14.13;;;8.57;;
37309;SDS011;23195;47.744;7.358;2023-02-28T08:30:27;16.53;;;9.07;;
37309;SDS011;23195;47.744;7.358;2023-02-28T08:32:53;14.40;;;8.17;;
37309;SDS011;23195;47.744;7.358;2023-02-28T08:35:22;13.47;;;8.47;;
37309;SDS011;23195;47.744;7.358;2023-02-28T08:37:48;13.30;;;8.53;;
37309;SDS011;23195;47.744;7.358;2023-02-28T08:40:15;14.50;;;8.07;;
37309;SDS011;23195;47.744;7.358;2023-02-28T08:42:46;13.23;;;8.43;;
37309;SDS011;23195;47.744;7.358;2023-02-28T08:45:15;16.83;;;9.33;;
37309;SDS011;23195;47.744;7.358;2023-02-28T08:47:41;15.13;;;8.87;;
37309;SDS011;23195;47.744;7.358;2023-02-28T08:50:07;17.47;;;9.77;;
37309;SDS011;23195;47.744;7.358;2023-02-28T08:52:36;15.50;;;8.77;;
37309;SDS011;23195;47.744;7.358;2023-02-28T08:55:03;14.87;;;8.17;;
37309;SDS011;23195;47.744;7.358;2023-02-28T08:57:29;14.30;;;8.43;;
37309;SDS011;23195;47.744;7.358;2023-02-28T08:59:55;14.40;;;8.87;;
37309;SDS011;23195;47.744;7.358;2023-02-28T09:02:21;13.33;;;8.30;;
37309;SDS011;23195;47.744;7.358;2023-02-28T09:04:47;14.60;;;8.27;;
37309;SDS011;23195;47.744;7.358;2023-02-28T09:07:13;12.23;;;8.13;;
37309;SDS011;23195;47.744;7.358;2023-02-28T09:09:38;13.50;;;9.30;;
37309;SDS011;23195;47.744;7.358;2023-02-28T09:12:19;15.93;;;9.17;;
37309;SDS011;23195;47.744;7.358;2023-02-28T09:14:52;14.47;;;8.30;;
37309;SDS011;23195;47.744;7.358;2023-02-28T09:17:18;15.03;;;8.37;;
37309;SDS011;23195;47.744;7.358;2023-02-28T09:19:48;16.17;;;9.43;;
37309;SDS011;23195;47.744;7.358;2023-02-28T09:22:14;14.50;;;8.90;;
37309;SDS011;23195;47.744;7.358;2023-02-28T09:24:43;13.43;;;9.00;;
37309;SDS011;23195;47.744;7.358;2023-02-28T09:27:11;16.63;;;10.00;;
37309;SDS011;23195;47.744;7.358;2023-02-28T09:29:40;20.23;;;12.07;;
37309;SDS011;23195;47.744;7.358;2023-02-28T09:32:06;22.03;;;10.43;;
37309;SDS011;23195;47.744;7.358;2023-02-28T09:34:32;16.43;;;9.67;;
37309;SDS011;23195;47.744;7.358;2023-02-28T09:36:58;17.93;;;10.33;;
37309;SDS011;23195;47.744;7.358;2023-02-28T09:39:24;18.33;;;10.17;;
37309;SDS011;23195;47.744;7.358;2023-02-28T09:41:52;22.17;;;11.23;;
37309;SDS011;23195;47.744;7.358;2023-02-28T09:44:24;20.40;;;10.37;;
37309;SDS011;23195;47.744;7.358;2023-02-28T09:47:16;20.33;;;11.27;;
37309;SDS011;23195;47.744;7.358;2023-02-28T09:49:54;17.67;;;10.63;;
37309;SDS011;23195;47.744;7.358;2023-02-28T09:52:28;22.37;;;10.67;;
37309;SDS011;23195;47.744;7.358;2023-02-28T09:55:00;16.97;;;9.80;;
37309;SDS011;23195;47.744;7.358;2023-02-28T09:57:47;20.03;;;11.37;;
37309;SDS011;23195;47.744;7.358;2023-02-28T10:00:20;20.20;;;11.03;;
37309;SDS011;23195;47.744;7.358;2023-02-28T10:08:25;18.33;;;11.17;;
37309;SDS011;23195;47.744;7.358;2023-02-28T10:11:00;21.97;;;10.47;;
37309;SDS011;23195;47.744;7.358;2023-02-28T10:16:05;17.83;;;10.37;;
37309;SDS011;23195;47.744;7.358;2023-02-28T10:21:33;17.63;;;10.00;;
37309;SDS011;23195;47.744;7.358;2023-02-28T10:24:05;16.93;;;10.70;;
37309;SDS011;23195;47.744;7.358;2023-02-28T10:26:45;17.40;;;10.20;;
37309;SDS011;23195;47.744;7.358;2023-02-28T10:29:13;17.30;;;10.73;;
37309;SDS011;23195;47.744;7.358;2023-02-28T10:31:39;19.47;;;11.13;;
37309;SDS011;23195;47.744;7.358;2023-02-28T10:34:05;19.77;;;11.07;;
37309;SDS011;23195;47.744;7.358;2023-02-28T10:36:32;18.90;;;10.83;;
37309;SDS011;23195;47.744;7.358;2023-02-28T10:38:58;21.27;;;11.00;;
37309;SDS011;23195;47.744;7.358;2023-02-28T10:44:40;16.10;;;10.03;;
37309;SDS011;23195;47.744;7.358;2023-02-28T10:46:48;20.97;;;10.93;;
37309;SDS011;23195;47.744;7.358;2023-02-28T10:49:26;16.40;;;9.97;;
37309;SDS011;23195;47.744;7.358;2023-02-28T10:51:57;17.20;;;9.70;;
37309;SDS011;23195;47.744;7.358;2023-02-28T10:54:32;20.83;;;11.17;;
37309;SDS011;23195;47.744;7.358;2023-02-28T10:57:20;19.67;;;10.77;;
37309;SDS011;23195;47.744;7.358;2023-02-28T10:59:52;18.40;;;10.23;;
37309;SDS011;23195;47.744;7.358;2023-02-28T11:02:32;17.20;;;10.47;;
37309;SDS011;23195;47.744;7.358;2023-02-28T11:05:00;17.13;;;10.20;;
37309;SDS011;23195;47.744;7.358;2023-02-28T11:07:26;18.67;;;10.83;;
37309;SDS011;23195;47.744;7.358;2023-02-28T11:09:53;16.23;;;10.40;;
37309;SDS011;23195;47.744;7.358;2023-02-28T11:12:26;18.40;;;10.37;;
37309;SDS011;23195;47.744;7.358;2023-02-28T11:15:46;17.33;;;10.20;;
37309;SDS011;23195;47.744;7.358;2023-02-28T11:17:53;16.60;;;10.27;;
37309;SDS011;23195;47.744;7.358;2023-02-28T11:20:23;18.13;;;10.27;;
37309;SDS011;23195;47.744;7.358;2023-02-28T11:22:55;15.87;;;11.30;;
37309;SDS011;23195;47.744;7.358;2023-02-28T11:25:26;17.40;;;10.43;;
37309;SDS011;23195;47.744;7.358;2023-02-28T11:27:53;23.80;;;10.87;;
37309;SDS011;23195;47.744;7.358;2023-02-28T11:30:29;18.37;;;10.67;;
37309;SDS011;23195;47.744;7.358;2023-02-28T11:32:58;19.90;;;10.43;;
37309;SDS011;23195;47.744;7.358;2023-02-28T11:35:32;17.93;;;11.33;;
37309;SDS011;23195;47.744;7.358;2023-02-28T11:38:01;18.00;;;10.90;;
37309;SDS011;23195;47.744;7.358;2023-02-28T11:40:34;16.47;;;10.07;;
37309;SDS011;23195;47.744;7.358;2023-02-28T11:43:21;16.93;;;9.93;;
37309;SDS011;23195;47.744;7.358;2023-02-28T11:48:55;15.53;;;9.77;;
37309;SDS011;23195;47.744;7.358;2023-02-28T11:51:47;18.60;;;10.23;;
37309;SDS011;23195;47.744;7.358;2023-02-28T11:54:32;16.50;;;10.20;;
37309;SDS011;23195;47.744;7.358;2023-02-28T12:25:10;15.33;;;10.30;;
37309;SDS011;23195;47.744;7.358;2023-02-28T12:28:09;20.00;;;11.37;;
37309;SDS011;23195;47.744;7.358;2023-02-28T12:34:01;17.97;;;10.23;;
37309;SDS011;23195;47.744;7.358;2023-02-28T12:36:39;16.90;;;10.70;;
37309;SDS011;23195;47.744;7.358;2023-02-28T12:41:42;16.80;;;10.37;;
37309;SDS011;23195;47.744;7.358;2023-02-28T12:44:37;17.63;;;10.80;;
37309;SDS011;23195;47.744;7.358;2023-02-28T12:47:14;17.20;;;10.40;;
37309;SDS011;23195;47.744;7.358;2023-02-28T12:55:12;16.37;;;10.07;;
37309;SDS011;23195;47.744;7.358;2023-02-28T12:58:01;18.67;;;10.53;;
37309;SDS011;23195;47.744;7.358;2023-02-28T13:01:45;16.17;;;11.10;;
37309;SDS011;23195;47.744;7.358;2023-02-28T13:10:02;17.47;;;10.43;;
37309;SDS011;23195;47.744;7.358;2023-02-28T13:12:29;17.97;;;10.60;;
37309;SDS011;23195;47.744;7.358;2023-02-28T13:17:50;16.87;;;10.73;;
37309;SDS011;23195;47.744;7.358;2023-02-28T13:20:29;21.47;;;10.97;;
37309;SDS011;23195;47.744;7.358;2023-02-28T13:23:00;18.27;;;10.83;;
37309;SDS011;23195;47.744;7.358;2023-02-28T13:27:59;17.33;;;10.30;;
37309;SDS011;23195;47.744;7.358;2023-02-28T13:38:43;19.17;;;11.53;;
37309;SDS011;23195;47.744;7.358;2023-02-28T13:44:07;16.93;;;10.53;;
37309;SDS011;23195;47.744;7.358;2023-02-28T13:49:32;19.90;;;11.80;;
37309;SDS011;23195;47.744;7.358;2023-02-28T13:52:06;19.27;;;11.27;;
37309;SDS011;23195;47.744;7.358;2023-02-28T13:57:56;21.23;;;12.10;;
37309;SDS011;23195;47.744;7.358;2023-02-28T14:06:28;20.57;;;10.67;;
37309;SDS011;23195;47.744;7.358;2023-02-28T14:11:34;17.23;;;10.93;;
37309;SDS011;23195;47.744;7.358;2023-02-28T14:14:02;19.57;;;10.80;;
37309;SDS011;23195;47.744;7.358;2023-02-28T14:16:45;21.30;;;11.50;;
37309;SDS011;23195;47.744;7.358;2023-02-28T14:19:17;20.47;;;11.43;;
37309;SDS011;23195;47.744;7.358;2023-02-28T14:22:00;18.97;;;11.03;;
37309;SDS011;23195;47.744;7.358;2023-02-28T14:32:38;23.67;;;11.90;;
37309;SDS011;23195;47.744;7.358;2023-02-28T14:35:35;21.00;;;11.67;;
37309;SDS011;23195;47.744;7.358;2023-02-28T14:38:25;18.87;;;10.67;;
37309;SDS011;23195;47.744;7.358;2023-02-28T14:41:24;18.10;;;11.40;;
37309;SDS011;23195;47.744;7.358;2023-02-28T14:44:02;19.13;;;11.50;;
37309;SDS011;23195;47.744;7.358;2023-02-28T14:46:38;22.43;;;11.43;;
37309;SDS011;23195;47.744;7.358;2023-02-28T14:49:15;20.17;;;11.63;;
37309;SDS011;23195;47.744;7.358;2023-02-28T14:51:47;18.10;;;11.67;;
37309;SDS011;23195;47.744;7.358;2023-02-28T14:54:19;20.40;;;12.40;;
37309;SDS011;23195;47.744;7.358;2023-02-28T14:56:50;19.93;;;11.47;;
37309;SDS011;23195;47.744;7.358;2023-02-28T14:59:23;19.30;;;11.67;;
37309;SDS011;23195;47.744;7.358;2023-02-28T15:02:20;21.13;;;12.23;;
37309;SDS011;23195;47.744;7.358;2023-02-28T15:04:57;20.33;;;11.43;;
37309;SDS011;23195;47.744;7.358;2023-02-28T15:07:28;22.27;;;11.77;;
37309;SDS011;23195;47.744;7.358;2023-02-28T15:12:39;19.00;;;10.93;;
37309;SDS011;23195;47.744;7.358;2023-02-28T15:15:13;20.47;;;12.00;;
37309;SDS011;23195;47.744;7.358;2023-02-28T15:17:46;21.13;;;11.83;;
37309;SDS011;23195;47.744;7.358;2023-02-28T15:20:17;18.63;;;11.80;;
37309;SDS011;23195;47.744;7.358;2023-02-28T15:22:44;19.50;;;11.70;;
37309;SDS011;23195;47.744;7.358;2023-02-28T15:25:13;18.80;;;11.07;;
37309;SDS011;23195;47.744;7.358;2023-02-28T15:27:45;29.37;;;12.10;;
37309;SDS011;23195;47.744;7.358;2023-02-28T15:30:20;23.37;;;12.80;;
37309;SDS011;23195;47.744;7.358;2023-02-28T15:33:03;19.43;;;11.23;;
37309;SDS011;23195;47.744;7.358;2023-02-28T15:35:41;20.87;;;12.47;;
37309;SDS011;23195;47.744;7.358;2023-02-28T15:38:18;22.17;;;12.60;;
37309;SDS011;23195;47.744;7.358;2023-02-28T15:40:52;20.10;;;11.63;;
37309;SDS011;23195;47.744;7.358;2023-02-28T15:51:29;30.43;;;16.23;;
37309;SDS011;23195;47.744;7.358;2023-02-28T15:54:17;21.50;;;12.60;;
37309;SDS011;23195;47.744;7.358;2023-02-28T15:56:53;23.43;;;13.13;;
37309;SDS011;23195;47.744;7.358;2023-02-28T15:59:33;34.40;;;18.43;;
37309;SDS011;23195;47.744;7.358;2023-02-28T16:02:17;25.00;;;14.93;;
37309;SDS011;23195;47.744;7.358;2023-02-28T16:07:33;24.37;;;12.80;;
37309;SDS011;23195;47.744;7.358;2023-02-28T16:10:00;23.97;;;12.67;;
37309;SDS011;23195;47.744;7.358;2023-02-28T16:12:30;20.20;;;11.90;;
37309;SDS011;23195;47.744;7.358;2023-02-28T16:14:59;22.13;;;12.20;;
37309;SDS011;23195;47.744;7.358;2023-02-28T16:17:32;21.40;;;12.30;;
37309;SDS011;23195;47.744;7.358;2023-02-28T16:20:00;20.53;;;12.57;;
37309;SDS011;23195;47.744;7.358;2023-02-28T16:22:26;22.30;;;12.73;;
37309;SDS011;23195;47.744;7.358;2023-02-28T16:24:52;31.87;;;17.87;;
37309;SDS011;23195;47.744;7.358;2023-02-28T16:27:27;23.33;;;13.17;;
37309;SDS011;23195;47.744;7.358;2023-02-28T16:29:56;21.37;;;12.90;;
37309;SDS011;23195;47.744;7.358;2023-02-28T16:32:22;21.90;;;12.67;;
37309;SDS011;23195;47.744;7.358;2023-02-28T16:34:48;23.70;;;13.10;;
37309;SDS011;23195;47.744;7.358;2023-02-28T16:37:15;20.77;;;12.10;;
37309;SDS011;23195;47.744;7.358;2023-02-28T16:39:43;23.93;;;13.23;;
37309;SDS011;23195;47.744;7.358;2023-02-28T16:42:18;23.40;;;13.03;;
37309;SDS011;23195;47.744;7.358;2023-02-28T16:44:52;22.83;;;13.33;;
37309;SDS011;23195;47.744;7.358;2023-02-28T16:47:19;24.17;;;13.47;;
37309;SDS011;23195;47.744;7.358;2023-02-28T16:49:47;24.60;;;13.97;;
37309;SDS011;23195;47.744;7.358;2023-02-28T16:52:15;22.23;;;13.20;;
37309;SDS011;23195;47.744;7.358;2023-02-28T16:54:41;24.47;;;13.20;;
37309;SDS011;23195;47.744;7.358;2023-02-28T16:57:17;21.27;;;13.00;;
37309;SDS011;23195;47.744;7.358;2023-02-28T16:59:56;21.80;;;12.73;;
37309;SDS011;23195;47.744;7.358;2023-02-28T17:02:22;26.13;;;14.50;;
37309;SDS011;23195;47.744;7.358;2023-02-28T17:04:48;23.53;;;13.13;;
37309;SDS011;23195;47.744;7.358;2023-02-28T17:07:14;23.50;;;13.87;;
37309;SDS011;23195;47.744;7.358;2023-02-28T17:09:41;26.83;;;14.93;;
37309;SDS011;23195;47.744;7.358;2023-02-28T17:12:11;23.97;;;13.97;;
37309;SDS011;23195;47.744;7.358;2023-02-28T17:14:37;23.17;;;13.33;;
37309;SDS011;23195;47.744;7.358;2023-02-28T17:17:04;23.83;;;13.17;;
37309;SDS011;23195;47.744;7.358;2023-02-28T17:19:30;25.73;;;14.37;;
37309;SDS011;23195;47.744;7.358;2023-02-28T17:21:56;29.07;;;15.53;;
37309;SDS011;23195;47.744;7.358;2023-02-28T17:24:22;25.77;;;14.40;;
37309;SDS011;23195;47.744;7.358;2023-02-28T17:26:48;24.43;;;13.77;;